Tampere, Suomi

28. heinäkuuta 2017 klo 15:43 (EEST) (GMT +0300)
Honkaniementie | | Change Station

Kork 370 ft 61.40 °N, 23.77 °E | Updated 10 minutes ago

Sadetta
Sadetta
73.0 °F
Tuntuu kuin 73 °F
N
2.5
Tuuli Suunnaltaan vaihteleva Tuuli ilmansuunnasta Koillinen
Gusts 5.6 mph

Tänään
Korkea -- | Matala -- °F
--% Sateen mahd.
Eilen
Korkea -- | Matala -- °F
Precip. -- tuumaa
Ilmanpaine 29.62 tuumaa
Näkyvyys 6.2 mailia
Pilviä Harvoja pilviä 2600 ft
Lämpötilaindeksi 73 °F
Kastepiste 66 °F
Ilmankosteus 79%
Sademäärä 0.00 tuumaa
Lumensyvyys Ei saatavilla
4:47 AM 10:14 PM
Kasvava sirppi, 30% visible
METAR EFTP 281220Z AUTO 07010KT 040V120 9999 FEW026 22/18 Q1003
Ilmanpaine 29.62 tuumaa
Näkyvyys 6.2 mailia
Pilviä Harvoja pilviä 2600 ft
Lämpötilaindeksi 73 °F
Kastepiste 66 °F
Ilmankosteus 79%
Sademäärä 0.00 tuumaa
Lumensyvyys Ei saatavilla
4:47 AM 10:14 PM
Kasvava sirppi, 30% visible
METAR EFTP 281220Z AUTO 07010KT 040V120 9999 FEW026 22/18 Q1003

Get Severe Weather Alerts

Thanks for signing up!

Be on the lookout for a verification email in your inbox.

You'll start receiving the daily forecast at 6 AM.

×

10-Day Weather Forecast

×

Almanac

Tähtitiede

Jul. 28, 2017 Nousuaika Laskuaika
Valoisa aika
Porvarillinen hämärä
Nauttinen hämärä
Astronominen hämärä
Kuu
Näkyvän valon pituus
Päivän pituus
Tomorrow will be .
, % of the Moon is Illuminated

Tämän päivän ennätykset

Country Highs Country Lows

Community

WunderPhotos

Category 6

Welcome to Category 6. This is the collective home for Weather Underground's featured writeups by Dr. Jeff Masters (right), Bob Henson (left), Chris Burt, and other regular contributors.

Nearby

Ilmanlaatu

  Ilmanlaatu AQ Index Pollutant
Not available.

Lumensyvyys

Station Depth Korkeus

Maanjäristysaktiivisuus

Paikkakunta Distance Mag. Time & Date
Minimum magnitude displayed is 2.5.

Coastal Water Temperatures

Paikka Lämpötila

Stations

Lähimmät sääasemat

Aseman sijainti Lämpötila Tuulen hyytävyys Kastepiste Ilmankosteus Tuuli Precip. Kork Päivitetty Tyyppi